sensor_id;sensor_type;location;lat;lon;timestamp;temperature;humidity
54642;DHT22;40536;53.194;5.728;2022-08-21T00:01:05;14.80;99.90
54642;DHT22;40536;53.194;5.728;2022-08-21T00:03:32;14.70;99.90
54642;DHT22;40536;53.194;5.728;2022-08-21T00:05:58;14.80;99.90
54642;DHT22;40536;53.194;5.728;2022-08-21T00:08:24;14.70;99.90
54642;DHT22;40536;53.194;5.728;2022-08-21T00:10:50;14.70;99.90
54642;DHT22;40536;53.194;5.728;2022-08-21T00:13:16;14.70;99.90
54642;DHT22;40536;53.194;5.728;2022-08-21T00:15:43;14.70;99.90
54642;DHT22;40536;53.194;5.728;2022-08-21T00:18:09;14.60;99.90
54642;DHT22;40536;53.194;5.728;2022-08-21T00:20:37;14.60;99.90
54642;DHT22;40536;53.194;5.728;2022-08-21T00:23:03;14.70;99.90
54642;DHT22;40536;53.194;5.728;2022-08-21T00:25:30;14.60;99.90
54642;DHT22;40536;53.194;5.728;2022-08-21T00:27:56;14.70;99.90
54642;DHT22;40536;53.194;5.728;2022-08-21T00:30:24;14.70;99.90
54642;DHT22;40536;53.194;5.728;2022-08-21T00:32:53;14.70;99.90
54642;DHT22;40536;53.194;5.728;2022-08-21T00:35:23;14.70;99.90
54642;DHT22;40536;53.194;5.728;2022-08-21T00:37:49;14.50;99.90
54642;DHT22;40536;53.194;5.728;2022-08-21T00:40:18;14.50;99.90
54642;DHT22;40536;53.194;5.728;2022-08-21T00:42:44;14.50;99.90
54642;DHT22;40536;53.194;5.728;2022-08-21T00:45:11;14.50;99.90
54642;DHT22;40536;53.194;5.728;2022-08-21T00:47:36;14.40;99.90
54642;DHT22;40536;53.194;5.728;2022-08-21T00:50:05;14.40;99.90
54642;DHT22;40536;53.194;5.728;2022-08-21T00:52:32;14.40;99.90
54642;DHT22;40536;53.194;5.728;2022-08-21T00:55:00;14.40;99.90
54642;DHT22;40536;53.194;5.728;2022-08-21T00:57:30;14.40;99.90
54642;DHT22;40536;53.194;5.728;2022-08-21T00:59:58;14.40;99.90
54642;DHT22;40536;53.194;5.728;2022-08-21T01:02:25;14.30;99.90
54642;DHT22;40536;53.194;5.728;2022-08-21T01:04:51;14.30;99.90
54642;DHT22;40536;53.194;5.728;2022-08-21T01:07:17;14.50;99.90
54642;DHT22;40536;53.194;5.728;2022-08-21T01:09:45;14.20;99.90
54642;DHT22;40536;53.194;5.728;2022-08-21T01:12:11;14.00;99.90
54642;DHT22;40536;53.194;5.728;2022-08-21T01:14:38;14.00;99.90
54642;DHT22;40536;53.194;5.728;2022-08-21T01:17:06;14.00;99.90
54642;DHT22;40536;53.194;5.728;2022-08-21T01:19:32;14.20;99.90
54642;DHT22;40536;53.194;5.728;2022-08-21T01:21:58;13.90;99.90
54642;DHT22;40536;53.194;5.728;2022-08-21T01:24:25;13.90;99.90
54642;DHT22;40536;53.194;5.728;2022-08-21T01:26:51;13.80;99.90
54642;DHT22;40536;53.194;5.728;2022-08-21T01:29:36;13.80;99.90
54642;DHT22;40536;53.194;5.728;2022-08-21T01:32:10;13.80;99.90
54642;DHT22;40536;53.194;5.728;2022-08-21T01:34:38;13.80;99.90
54642;DHT22;40536;53.194;5.728;2022-08-21T01:37:04;13.80;99.90
54642;DHT22;40536;53.194;5.728;2022-08-21T01:39:30;13.70;99.90
54642;DHT22;40536;53.194;5.728;2022-08-21T01:41:56;13.70;99.90
54642;DHT22;40536;53.194;5.728;2022-08-21T01:44:23;13.70;99.90
54642;DHT22;40536;53.194;5.728;2022-08-21T01:46:50;13.60;99.90
54642;DHT22;40536;53.194;5.728;2022-08-21T01:49:15;13.60;99.90
54642;DHT22;40536;53.194;5.728;2022-08-21T01:51:42;13.60;99.90
54642;DHT22;40536;53.194;5.728;2022-08-21T01:54:08;13.50;99.90
54642;DHT22;40536;53.194;5.728;2022-08-21T01:56:53;13.50;99.90
54642;DHT22;40536;53.194;5.728;2022-08-21T01:59:22;13.50;99.90
54642;DHT22;40536;53.194;5.728;2022-08-21T02:01:48;13.50;99.90
54642;DHT22;40536;53.194;5.728;2022-08-21T02:04:14;13.50;99.90
54642;DHT22;40536;53.194;5.728;2022-08-21T02:06:40;13.50;99.90
54642;DHT22;40536;53.194;5.728;2022-08-21T02:09:08;13.40;99.90
54642;DHT22;40536;53.194;5.728;2022-08-21T02:11:35;13.40;99.90
54642;DHT22;40536;53.194;5.728;2022-08-21T02:14:01;13.40;99.90
54642;DHT22;40536;53.194;5.728;2022-08-21T02:16:27;13.40;99.90
54642;DHT22;40536;53.194;5.728;2022-08-21T02:18:53;13.50;99.90
54642;DHT22;40536;53.194;5.728;2022-08-21T02:21:19;13.40;99.90
54642;DHT22;40536;53.194;5.728;2022-08-21T02:23:45;13.50;99.90
54642;DHT22;40536;53.194;5.728;2022-08-21T02:26:11;13.60;99.90
54642;DHT22;40536;53.194;5.728;2022-08-21T02:28:38;13.80;99.90
54642;DHT22;40536;53.194;5.728;2022-08-21T02:31:04;13.60;99.90
54642;DHT22;40536;53.194;5.728;2022-08-21T02:33:30;13.40;99.90
54642;DHT22;40536;53.194;5.728;2022-08-21T02:35:57;13.50;99.90
54642;DHT22;40536;53.194;5.728;2022-08-21T02:38:26;13.50;99.90
54642;DHT22;40536;53.194;5.728;2022-08-21T02:40:53;13.40;99.90
54642;DHT22;40536;53.194;5.728;2022-08-21T02:43:20;13.40;99.90
54642;DHT22;40536;53.194;5.728;2022-08-21T02:45:48;13.50;99.90
54642;DHT22;40536;53.194;5.728;2022-08-21T02:48:17;13.50;99.90
54642;DHT22;40536;53.194;5.728;2022-08-21T02:50:46;13.40;99.90
54642;DHT22;40536;53.194;5.728;2022-08-21T02:53:13;13.50;99.90
54642;DHT22;40536;53.194;5.728;2022-08-21T02:55:42;13.60;99.90
54642;DHT22;40536;53.194;5.728;2022-08-21T02:58:08;13.50;99.90
54642;DHT22;40536;53.194;5.728;2022-08-21T03:00:36;13.50;99.90
54642;DHT22;40536;53.194;5.728;2022-08-21T03:03:02;13.50;99.90
54642;DHT22;40536;53.194;5.728;2022-08-21T03:05:29;13.50;99.90
54642;DHT22;40536;53.194;5.728;2022-08-21T03:07:57;13.50;99.90
54642;DHT22;40536;53.194;5.728;2022-08-21T03:10:24;13.60;99.90
54642;DHT22;40536;53.194;5.728;2022-08-21T03:12:50;13.70;99.90
54642;DHT22;40536;53.194;5.728;2022-08-21T03:15:20;13.80;99.90
54642;DHT22;40536;53.194;5.728;2022-08-21T03:17:47;13.80;99.90
54642;DHT22;40536;53.194;5.728;2022-08-21T03:20:15;13.80;99.90
54642;DHT22;40536;53.194;5.728;2022-08-21T03:22:41;13.80;99.90
54642;DHT22;40536;53.194;5.728;2022-08-21T03:25:07;13.80;99.90
54642;DHT22;40536;53.194;5.728;2022-08-21T03:27:33;13.70;99.90
54642;DHT22;40536;53.194;5.728;2022-08-21T03:30:00;13.70;99.90
54642;DHT22;40536;53.194;5.728;2022-08-21T03:32:26;13.70;99.90
54642;DHT22;40536;53.194;5.728;2022-08-21T03:34:52;13.60;99.90
54642;DHT22;40536;53.194;5.728;2022-08-21T03:37:18;13.60;99.90
54642;DHT22;40536;53.194;5.728;2022-08-21T03:39:44;13.60;99.90
54642;DHT22;40536;53.194;5.728;2022-08-21T03:42:11;13.60;99.90
54642;DHT22;40536;53.194;5.728;2022-08-21T03:44:37;13.60;99.90
54642;DHT22;40536;53.194;5.728;2022-08-21T03:47:05;13.60;99.90
54642;DHT22;40536;53.194;5.728;2022-08-21T03:49:30;13.60;99.90
54642;DHT22;40536;53.194;5.728;2022-08-21T03:51:56;13.60;99.90
54642;DHT22;40536;53.194;5.728;2022-08-21T03:54:22;13.50;99.90
54642;DHT22;40536;53.194;5.728;2022-08-21T03:56:48;13.50;99.90
54642;DHT22;40536;53.194;5.728;2022-08-21T03:59:13;13.50;99.90
54642;DHT22;40536;53.194;5.728;2022-08-21T04:01:39;13.50;99.90
54642;DHT22;40536;53.194;5.728;2022-08-21T04:04:05;13.50;99.90
54642;DHT22;40536;53.194;5.728;2022-08-21T04:06:31;13.50;99.90
54642;DHT22;40536;53.194;5.728;2022-08-21T04:08:56;13.60;99.90
54642;DHT22;40536;53.194;5.728;2022-08-21T04:11:22;13.70;99.90
54642;DHT22;40536;53.194;5.728;2022-08-21T04:13:48;13.70;99.90
54642;DHT22;40536;53.194;5.728;2022-08-21T04:16:14;13.70;99.90
54642;DHT22;40536;53.194;5.728;2022-08-21T04:18:40;13.80;99.90
54642;DHT22;40536;53.194;5.728;2022-08-21T04:21:07;13.80;99.90
54642;DHT22;40536;53.194;5.728;2022-08-21T04:23:35;13.70;99.90
54642;DHT22;40536;53.194;5.728;2022-08-21T04:26:01;13.70;99.90
54642;DHT22;40536;53.194;5.728;2022-08-21T04:28:27;13.70;99.90
54642;DHT22;40536;53.194;5.728;2022-08-21T04:30:53;13.70;99.90
54642;DHT22;40536;53.194;5.728;2022-08-21T04:33:20;13.70;99.90
54642;DHT22;40536;53.194;5.728;2022-08-21T04:35:46;13.70;99.90
54642;DHT22;40536;53.194;5.728;2022-08-21T04:38:12;13.80;99.90
54642;DHT22;40536;53.194;5.728;2022-08-21T04:40:38;13.90;99.90
54642;DHT22;40536;53.194;5.728;2022-08-21T04:43:07;13.90;99.90
54642;DHT22;40536;53.194;5.728;2022-08-21T04:45:45;14.00;99.90
54642;DHT22;40536;53.194;5.728;2022-08-21T04:48:14;14.00;99.90
54642;DHT22;40536;53.194;5.728;2022-08-21T04:53:52;14.10;99.90
54642;DHT22;40536;53.194;5.728;2022-08-21T04:56:22;14.20;99.90
54642;DHT22;40536;53.194;5.728;2022-08-21T04:58:49;14.30;99.90
54642;DHT22;40536;53.194;5.728;2022-08-21T05:01:20;14.40;99.90
54642;DHT22;40536;53.194;5.728;2022-08-21T05:03:47;14.50;99.90
54642;DHT22;40536;53.194;5.728;2022-08-21T05:06:15;14.70;99.90
54642;DHT22;40536;53.194;5.728;2022-08-21T05:08:45;14.80;99.90
54642;DHT22;40536;53.194;5.728;2022-08-21T05:11:12;14.80;99.90
54642;DHT22;40536;53.194;5.728;2022-08-21T05:13:38;14.90;99.90
54642;DHT22;40536;53.194;5.728;2022-08-21T05:16:06;15.00;99.90
54642;DHT22;40536;53.194;5.728;2022-08-21T05:18:32;15.20;99.90
54642;DHT22;40536;53.194;5.728;2022-08-21T05:20:58;15.30;99.90
54642;DHT22;40536;53.194;5.728;2022-08-21T05:23:24;15.40;99.90
54642;DHT22;40536;53.194;5.728;2022-08-21T05:25:52;15.50;99.90
54642;DHT22;40536;53.194;5.728;2022-08-21T05:28:18;15.60;99.90
54642;DHT22;40536;53.194;5.728;2022-08-21T05:30:44;15.80;99.90
54642;DHT22;40536;53.194;5.728;2022-08-21T05:33:10;15.90;99.90
54642;DHT22;40536;53.194;5.728;2022-08-21T05:35:36;16.00;99.90
54642;DHT22;40536;53.194;5.728;2022-08-21T05:38:03;16.20;99.90
54642;DHT22;40536;53.194;5.728;2022-08-21T05:40:29;16.30;99.90
54642;DHT22;40536;53.194;5.728;2022-08-21T05:42:55;16.50;99.90
54642;DHT22;40536;53.194;5.728;2022-08-21T05:45:22;16.60;99.90
54642;DHT22;40536;53.194;5.728;2022-08-21T05:47:48;16.80;99.90
54642;DHT22;40536;53.194;5.728;2022-08-21T05:50:14;17.00;99.90
54642;DHT22;40536;53.194;5.728;2022-08-21T05:52:40;17.10;99.90
54642;DHT22;40536;53.194;5.728;2022-08-21T05:55:06;17.20;99.90
54642;DHT22;40536;53.194;5.728;2022-08-21T05:57:31;17.30;99.90
54642;DHT22;40536;53.194;5.728;2022-08-21T05:59:57;17.60;99.90
54642;DHT22;40536;53.194;5.728;2022-08-21T06:02:22;17.80;99.90
54642;DHT22;40536;53.194;5.728;2022-08-21T06:04:48;18.10;99.90
54642;DHT22;40536;53.194;5.728;2022-08-21T06:07:14;18.30;99.90
54642;DHT22;40536;53.194;5.728;2022-08-21T06:09:40;18.60;99.90
54642;DHT22;40536;53.194;5.728;2022-08-21T06:12:09;18.80;99.90
54642;DHT22;40536;53.194;5.728;2022-08-21T06:14:35;19.00;99.90
54642;DHT22;40536;53.194;5.728;2022-08-21T06:17:05;19.30;99.90
54642;DHT22;40536;53.194;5.728;2022-08-21T06:19:32;19.50;99.90
54642;DHT22;40536;53.194;5.728;2022-08-21T06:21:58;19.70;99.90
54642;DHT22;40536;53.194;5.728;2022-08-21T06:24:24;20.00;99.90
54642;DHT22;40536;53.194;5.728;2022-08-21T06:26:50;20.10;99.90
54642;DHT22;40536;53.194;5.728;2022-08-21T06:29:16;20.50;99.90
54642;DHT22;40536;53.194;5.728;2022-08-21T06:31:43;20.60;99.90
54642;DHT22;40536;53.194;5.728;2022-08-21T06:34:10;21.00;99.90
54642;DHT22;40536;53.194;5.728;2022-08-21T06:36:36;21.30;99.90
54642;DHT22;40536;53.194;5.728;2022-08-21T06:39:02;21.60;99.90
54642;DHT22;40536;53.194;5.728;2022-08-21T06:41:28;21.60;99.90
54642;DHT22;40536;53.194;5.728;2022-08-21T06:43:55;21.90;99.90
54642;DHT22;40536;53.194;5.728;2022-08-21T06:46:22;21.90;99.90
54642;DHT22;40536;53.194;5.728;2022-08-21T06:48:47;22.00;99.90
54642;DHT22;40536;53.194;5.728;2022-08-21T06:51:13;22.00;99.90
54642;DHT22;40536;53.194;5.728;2022-08-21T06:53:38;22.10;99.90
54642;DHT22;40536;53.194;5.728;2022-08-21T06:56:04;22.30;99.90
54642;DHT22;40536;53.194;5.728;2022-08-21T06:58:30;22.30;99.90
54642;DHT22;40536;53.194;5.728;2022-08-21T07:00:56;22.60;99.90
54642;DHT22;40536;53.194;5.728;2022-08-21T07:03:23;22.70;99.90
54642;DHT22;40536;53.194;5.728;2022-08-21T07:05:49;22.60;99.90
54642;DHT22;40536;53.194;5.728;2022-08-21T07:08:15;22.80;99.90
54642;DHT22;40536;53.194;5.728;2022-08-21T07:10:42;23.10;99.90
54642;DHT22;40536;53.194;5.728;2022-08-21T07:13:07;23.30;99.90
54642;DHT22;40536;53.194;5.728;2022-08-21T07:15:33;23.40;99.90
54642;DHT22;40536;53.194;5.728;2022-08-21T07:17:59;23.50;99.90
54642;DHT22;40536;53.194;5.728;2022-08-21T07:20:29;23.50;99.90
54642;DHT22;40536;53.194;5.728;2022-08-21T07:22:57;23.40;99.90
54642;DHT22;40536;53.194;5.728;2022-08-21T07:25:24;23.30;99.90
54642;DHT22;40536;53.194;5.728;2022-08-21T07:27:50;23.60;99.90
54642;DHT22;40536;53.194;5.728;2022-08-21T07:30:16;23.70;99.90
54642;DHT22;40536;53.194;5.728;2022-08-21T07:32:42;23.60;99.90
54642;DHT22;40536;53.194;5.728;2022-08-21T07:35:07;23.90;99.90
54642;DHT22;40536;53.194;5.728;2022-08-21T07:37:33;24.00;99.90
54642;DHT22;40536;53.194;5.728;2022-08-21T07:39:59;24.00;99.90
54642;DHT22;40536;53.194;5.728;2022-08-21T07:42:24;24.50;99.90
54642;DHT22;40536;53.194;5.728;2022-08-21T07:44:50;25.00;99.90
54642;DHT22;40536;53.194;5.728;2022-08-21T07:47:16;25.50;99.90
54642;DHT22;40536;53.194;5.728;2022-08-21T07:49:41;25.60;99.90
54642;DHT22;40536;53.194;5.728;2022-08-21T07:52:07;24.90;99.90
54642;DHT22;40536;53.194;5.728;2022-08-21T07:54:33;24.70;99.90
54642;DHT22;40536;53.194;5.728;2022-08-21T07:56:58;24.80;99.90
54642;DHT22;40536;53.194;5.728;2022-08-21T07:59:24;25.10;99.90
54642;DHT22;40536;53.194;5.728;2022-08-21T08:01:50;25.10;99.90
54642;DHT22;40536;53.194;5.728;2022-08-21T08:04:15;25.40;99.90
54642;DHT22;40536;53.194;5.728;2022-08-21T08:06:41;26.00;99.90
54642;DHT22;40536;53.194;5.728;2022-08-21T08:09:07;26.60;99.90
54642;DHT22;40536;53.194;5.728;2022-08-21T08:11:33;26.40;99.90
54642;DHT22;40536;53.194;5.728;2022-08-21T08:13:59;26.40;99.90
54642;DHT22;40536;53.194;5.728;2022-08-21T08:16:25;25.90;99.90
54642;DHT22;40536;53.194;5.728;2022-08-21T08:18:51;25.80;99.90
54642;DHT22;40536;53.194;5.728;2022-08-21T08:21:17;25.30;99.90
54642;DHT22;40536;53.194;5.728;2022-08-21T08:23:46;25.00;99.90
54642;DHT22;40536;53.194;5.728;2022-08-21T08:26:11;25.00;99.90
54642;DHT22;40536;53.194;5.728;2022-08-21T08:28:37;25.20;99.90
54642;DHT22;40536;53.194;5.728;2022-08-21T08:31:03;26.10;99.90
54642;DHT22;40536;53.194;5.728;2022-08-21T08:33:29;26.20;99.90
54642;DHT22;40536;53.194;5.728;2022-08-21T08:35:55;25.90;99.90
54642;DHT22;40536;53.194;5.728;2022-08-21T08:38:23;26.10;99.90
54642;DHT22;40536;53.194;5.728;2022-08-21T08:43:22;25.90;99.90
54642;DHT22;40536;53.194;5.728;2022-08-21T08:45:51;25.30;99.90
54642;DHT22;40536;53.194;5.728;2022-08-21T08:51:03;25.60;99.90
54642;DHT22;40536;53.194;5.728;2022-08-21T08:53:44;25.40;99.90
54642;DHT22;40536;53.194;5.728;2022-08-21T08:56:11;24.80;99.90
54642;DHT22;40536;53.194;5.728;2022-08-21T08:58:40;24.90;99.90
54642;DHT22;40536;53.194;5.728;2022-08-21T09:01:16;25.50;99.90
54642;DHT22;40536;53.194;5.728;2022-08-21T09:03:43;26.50;99.90
54642;DHT22;40536;53.194;5.728;2022-08-21T09:06:17;26.40;99.90
54642;DHT22;40536;53.194;5.728;2022-08-21T09:08:54;27.00;99.90
54642;DHT22;40536;53.194;5.728;2022-08-21T09:14:17;25.90;99.90
54642;DHT22;40536;53.194;5.728;2022-08-21T09:17:09;25.30;99.90
54642;DHT22;40536;53.194;5.728;2022-08-21T09:19:57;25.50;99.90
54642;DHT22;40536;53.194;5.728;2022-08-21T09:22:28;25.60;99.90
54642;DHT22;40536;53.194;5.728;2022-08-21T09:27:42;26.80;99.90
54642;DHT22;40536;53.194;5.728;2022-08-21T09:30:09;26.60;99.90
54642;DHT22;40536;53.194;5.728;2022-08-21T09:32:36;27.20;99.90
54642;DHT22;40536;53.194;5.728;2022-08-21T09:35:15;28.00;99.90
54642;DHT22;40536;53.194;5.728;2022-08-21T09:37:51;28.60;99.90
54642;DHT22;40536;53.194;5.728;2022-08-21T09:43:14;28.90;99.60
54642;DHT22;40536;53.194;5.728;2022-08-21T09:45:43;28.80;99.90
54642;DHT22;40536;53.194;5.728;2022-08-21T09:48:20;28.90;99.90
54642;DHT22;40536;53.194;5.728;2022-08-21T09:50:47;28.30;99.90
54642;DHT22;40536;53.194;5.728;2022-08-21T09:53:31;27.70;99.90
54642;DHT22;40536;53.194;5.728;2022-08-21T09:56:00;28.30;99.90
54642;DHT22;40536;53.194;5.728;2022-08-21T09:58:48;28.60;99.90
54642;DHT22;40536;53.194;5.728;2022-08-21T10:01:20;27.50;99.90
54642;DHT22;40536;53.194;5.728;2022-08-21T10:03:46;26.50;99.90
54642;DHT22;40536;53.194;5.728;2022-08-21T10:06:25;26.10;99.90
54642;DHT22;40536;53.194;5.728;2022-08-21T10:09:13;26.60;99.90
54642;DHT22;40536;53.194;5.728;2022-08-21T10:11:40;27.30;99.90
54642;DHT22;40536;53.194;5.728;2022-08-21T10:22:19;29.00;97.80
54642;DHT22;40536;53.194;5.728;2022-08-21T10:27:34;29.70;97.90
54642;DHT22;40536;53.194;5.728;2022-08-21T10:30:07;30.10;97.10
54642;DHT22;40536;53.194;5.728;2022-08-21T10:32:57;30.20;98.30
54642;DHT22;40536;53.194;5.728;2022-08-21T10:35:32;30.30;98.10
54642;DHT22;40536;53.194;5.728;2022-08-21T10:41:04;31.60;96.60
54642;DHT22;40536;53.194;5.728;2022-08-21T10:49:13;30.30;95.80
54642;DHT22;40536;53.194;5.728;2022-08-21T10:57:24;30.10;96.90
54642;DHT22;40536;53.194;5.728;2022-08-21T10:59:59;30.20;97.50
54642;DHT22;40536;53.194;5.728;2022-08-21T11:02:35;30.50;97.20
54642;DHT22;40536;53.194;5.728;2022-08-21T11:05:15;30.10;97.40
54642;DHT22;40536;53.194;5.728;2022-08-21T11:10:21;30.80;96.10
54642;DHT22;40536;53.194;5.728;2022-08-21T11:13:00;30.90;95.50
54642;DHT22;40536;53.194;5.728;2022-08-21T11:15:43;30.80;96.40
54642;DHT22;40536;53.194;5.728;2022-08-21T11:18:37;30.80;96.20
54642;DHT22;40536;53.194;5.728;2022-08-21T11:27:05;30.90;96.10
54642;DHT22;40536;53.194;5.728;2022-08-21T11:29:37;30.50;95.80
54642;DHT22;40536;53.194;5.728;2022-08-21T11:45:53;28.90;97.00
54642;DHT22;40536;53.194;5.728;2022-08-21T11:57:39;30.40;96.10
54642;DHT22;40536;53.194;5.728;2022-08-21T12:00:29;30.50;96.50
54642;DHT22;40536;53.194;5.728;2022-08-21T12:03:07;30.80;95.30
54642;DHT22;40536;53.194;5.728;2022-08-21T12:05:39;30.90;95.00
54642;DHT22;40536;53.194;5.728;2022-08-21T12:16:36;29.80;95.90
54642;DHT22;40536;53.194;5.728;2022-08-21T12:19:07;30.20;95.50
54642;DHT22;40536;53.194;5.728;2022-08-21T12:29:27;28.30;95.70
54642;DHT22;40536;53.194;5.728;2022-08-21T12:32:03;27.80;96.40
54642;DHT22;40536;53.194;5.728;2022-08-21T12:34:38;27.10;96.70
54642;DHT22;40536;53.194;5.728;2022-08-21T12:37:18;26.70;97.10
54642;DHT22;40536;53.194;5.728;2022-08-21T12:39:48;26.30;98.20
54642;DHT22;40536;53.194;5.728;2022-08-21T12:42:19;26.20;97.80
54642;DHT22;40536;53.194;5.728;2022-08-21T12:45:00;25.90;97.40
54642;DHT22;40536;53.194;5.728;2022-08-21T12:47:43;25.80;99.50
54642;DHT22;40536;53.194;5.728;2022-08-21T12:55:29;27.10;98.30
54642;DHT22;40536;53.194;5.728;2022-08-21T12:57:56;27.00;98.10
54642;DHT22;40536;53.194;5.728;2022-08-21T13:00:24;26.60;98.10
54642;DHT22;40536;53.194;5.728;2022-08-21T13:02:52;25.90;98.50
54642;DHT22;40536;53.194;5.728;2022-08-21T13:07:54;25.60;99.90
54642;DHT22;40536;53.194;5.728;2022-08-21T13:10:32;25.70;99.30
54642;DHT22;40536;53.194;5.728;2022-08-21T13:13:12;25.90;99.90
54642;DHT22;40536;53.194;5.728;2022-08-21T13:15:42;25.90;99.70
54642;DHT22;40536;53.194;5.728;2022-08-21T13:18:08;26.00;99.00
54642;DHT22;40536;53.194;5.728;2022-08-21T13:20:38;25.80;99.10
54642;DHT22;40536;53.194;5.728;2022-08-21T13:23:20;25.70;99.30
54642;DHT22;40536;53.194;5.728;2022-08-21T13:25:48;25.60;99.50
54642;DHT22;40536;53.194;5.728;2022-08-21T13:28:15;25.80;99.90
54642;DHT22;40536;53.194;5.728;2022-08-21T13:30:49;26.10;99.90
54642;DHT22;40536;53.194;5.728;2022-08-21T13:33:18;26.30;98.70
54642;DHT22;40536;53.194;5.728;2022-08-21T13:35:57;26.20;99.30
54642;DHT22;40536;53.194;5.728;2022-08-21T13:38:28;26.10;98.90
54642;DHT22;40536;53.194;5.728;2022-08-21T13:41:43;26.00;98.80
54642;DHT22;40536;53.194;5.728;2022-08-21T13:43:49;25.90;99.60
54642;DHT22;40536;53.194;5.728;2022-08-21T13:46:15;25.90;99.60
54642;DHT22;40536;53.194;5.728;2022-08-21T13:48:42;25.90;99.90
54642;DHT22;40536;53.194;5.728;2022-08-21T13:51:09;25.80;99.80
54642;DHT22;40536;53.194;5.728;2022-08-21T13:58:54;25.60;99.70
54642;DHT22;40536;53.194;5.728;2022-08-21T14:01:23;25.40;99.90
54642;DHT22;40536;53.194;5.728;2022-08-21T14:03:53;25.30;99.90
54642;DHT22;40536;53.194;5.728;2022-08-21T14:06:24;25.40;99.90
54642;DHT22;40536;53.194;5.728;2022-08-21T14:09:00;25.10;99.90
54642;DHT22;40536;53.194;5.728;2022-08-21T14:11:32;24.80;99.90
54642;DHT22;40536;53.194;5.728;2022-08-21T14:14:04;24.70;99.90
54642;DHT22;40536;53.194;5.728;2022-08-21T14:17:04;24.80;99.90
54642;DHT22;40536;53.194;5.728;2022-08-21T14:19:48;24.80;99.90
54642;DHT22;40536;53.194;5.728;2022-08-21T14:22:37;24.60;99.90
54642;DHT22;40536;53.194;5.728;2022-08-21T14:27:33;24.20;99.90
54642;DHT22;40536;53.194;5.728;2022-08-21T14:30:03;24.20;99.90
54642;DHT22;40536;53.194;5.728;2022-08-21T14:32:38;24.00;99.90
54642;DHT22;40536;53.194;5.728;2022-08-21T14:35:05;24.00;99.90
54642;DHT22;40536;53.194;5.728;2022-08-21T14:37:31;24.10;99.90
54642;DHT22;40536;53.194;5.728;2022-08-21T14:39:57;24.20;99.90
54642;DHT22;40536;53.194;5.728;2022-08-21T14:42:23;24.10;99.90
54642;DHT22;40536;53.194;5.728;2022-08-21T14:44:49;24.00;99.90
54642;DHT22;40536;53.194;5.728;2022-08-21T14:47:15;23.80;99.90
54642;DHT22;40536;53.194;5.728;2022-08-21T14:49:41;23.70;99.90
54642;DHT22;40536;53.194;5.728;2022-08-21T14:52:06;23.80;99.90
54642;DHT22;40536;53.194;5.728;2022-08-21T14:54:32;23.90;99.90
54642;DHT22;40536;53.194;5.728;2022-08-21T14:57:01;23.90;99.90
54642;DHT22;40536;53.194;5.728;2022-08-21T14:59:27;23.80;99.90
54642;DHT22;40536;53.194;5.728;2022-08-21T15:01:53;23.80;99.90
54642;DHT22;40536;53.194;5.728;2022-08-21T15:04:19;23.70;99.90
54642;DHT22;40536;53.194;5.728;2022-08-21T15:06:44;23.70;99.90
54642;DHT22;40536;53.194;5.728;2022-08-21T15:09:10;23.50;99.90
54642;DHT22;40536;53.194;5.728;2022-08-21T15:11:36;23.60;99.90
54642;DHT22;40536;53.194;5.728;2022-08-21T15:14:05;23.50;99.90
54642;DHT22;40536;53.194;5.728;2022-08-21T15:16:33;23.40;99.90
54642;DHT22;40536;53.194;5.728;2022-08-21T15:18:59;23.40;99.90
54642;DHT22;40536;53.194;5.728;2022-08-21T15:21:25;23.30;99.90
54642;DHT22;40536;53.194;5.728;2022-08-21T15:23:50;23.20;99.90
54642;DHT22;40536;53.194;5.728;2022-08-21T15:26:16;23.10;99.90
54642;DHT22;40536;53.194;5.728;2022-08-21T15:28:42;23.10;99.90
54642;DHT22;40536;53.194;5.728;2022-08-21T15:31:08;23.10;99.90
54642;DHT22;40536;53.194;5.728;2022-08-21T15:33:34;23.10;99.90
54642;DHT22;40536;53.194;5.728;2022-08-21T15:36:00;23.20;99.90
54642;DHT22;40536;53.194;5.728;2022-08-21T15:38:25;23.10;99.90
54642;DHT22;40536;53.194;5.728;2022-08-21T15:40:51;23.10;99.90
54642;DHT22;40536;53.194;5.728;2022-08-21T15:43:27;23.00;99.90
54642;DHT22;40536;53.194;5.728;2022-08-21T15:45:53;22.90;99.90
54642;DHT22;40536;53.194;5.728;2022-08-21T15:48:19;22.90;99.90
54642;DHT22;40536;53.194;5.728;2022-08-21T15:50:45;22.80;99.90
54642;DHT22;40536;53.194;5.728;2022-08-21T15:53:11;22.80;99.90
54642;DHT22;40536;53.194;5.728;2022-08-21T15:55:37;22.70;99.90
54642;DHT22;40536;53.194;5.728;2022-08-21T15:58:03;22.60;99.90
54642;DHT22;40536;53.194;5.728;2022-08-21T16:00:30;22.60;99.90
54642;DHT22;40536;53.194;5.728;2022-08-21T16:02:58;22.50;99.90
54642;DHT22;40536;53.194;5.728;2022-08-21T16:05:24;22.50;99.90
54642;DHT22;40536;53.194;5.728;2022-08-21T16:07:51;22.50;99.90
54642;DHT22;40536;53.194;5.728;2022-08-21T16:10:20;22.40;99.90
54642;DHT22;40536;53.194;5.728;2022-08-21T16:12:51;22.40;99.90
54642;DHT22;40536;53.194;5.728;2022-08-21T16:15:18;22.40;99.90
54642;DHT22;40536;53.194;5.728;2022-08-21T16:17:45;22.30;99.90
54642;DHT22;40536;53.194;5.728;2022-08-21T16:20:22;22.30;99.90
54642;DHT22;40536;53.194;5.728;2022-08-21T16:22:50;22.10;99.90
54642;DHT22;40536;53.194;5.728;2022-08-21T16:25:16;22.00;99.90
54642;DHT22;40536;53.194;5.728;2022-08-21T16:27:44;22.00;99.90
54642;DHT22;40536;53.194;5.728;2022-08-21T16:30:11;21.90;99.90
54642;DHT22;40536;53.194;5.728;2022-08-21T16:32:37;22.00;99.90
54642;DHT22;40536;53.194;5.728;2022-08-21T16:35:03;22.00;99.90
54642;DHT22;40536;53.194;5.728;2022-08-21T16:37:29;22.00;99.90
54642;DHT22;40536;53.194;5.728;2022-08-21T16:39:55;22.00;99.90
54642;DHT22;40536;53.194;5.728;2022-08-21T16:42:23;22.00;99.90
54642;DHT22;40536;53.194;5.728;2022-08-21T16:44:50;22.00;99.90
54642;DHT22;40536;53.194;5.728;2022-08-21T16:47:16;22.10;99.90
54642;DHT22;40536;53.194;5.728;2022-08-21T16:49:42;22.10;99.90
54642;DHT22;40536;53.194;5.728;2022-08-21T16:52:08;22.00;99.90
54642;DHT22;40536;53.194;5.728;2022-08-21T16:54:33;22.00;99.90
54642;DHT22;40536;53.194;5.728;2022-08-21T16:56:59;22.00;99.90
54642;DHT22;40536;53.194;5.728;2022-08-21T16:59:26;22.00;99.90
54642;DHT22;40536;53.194;5.728;2022-08-21T17:01:52;22.10;99.90
54642;DHT22;40536;53.194;5.728;2022-08-21T17:04:19;22.10;99.90
54642;DHT22;40536;53.194;5.728;2022-08-21T17:06:48;22.10;99.90
54642;DHT22;40536;53.194;5.728;2022-08-21T17:09:14;22.10;99.90
54642;DHT22;40536;53.194;5.728;2022-08-21T17:11:42;22.10;99.90
54642;DHT22;40536;53.194;5.728;2022-08-21T17:14:21;22.10;99.90
54642;DHT22;40536;53.194;5.728;2022-08-21T17:16:50;22.00;99.90
54642;DHT22;40536;53.194;5.728;2022-08-21T17:19:17;21.90;99.90
54642;DHT22;40536;53.194;5.728;2022-08-21T17:21:42;21.70;99.90
54642;DHT22;40536;53.194;5.728;2022-08-21T17:24:08;21.60;99.90